Delta Ios — SVAK9 — position and weather

sailwx.info

Track history (hours):
 
Tides and Currents Weather Stations Pressure Air Temp Water Temp Dewpoint Dewpoint Depression Visibility Wind Speed Wind Dir Waves Ship Positions

Delta Ios

Last reported at 2015-Mar-29 21:33 UTC. Time now 2015-Mar-29 22:22 UTC.
Position N 36°10' W 005°23'.

Length 276 m; draft 15.3 m.

Type: Ship (hazmat cat C). MMSI: 240821000.

Date/timePositionNaut miles runAvg speedWind from/ knotsBaromVisibWave heightAir tempDewpointWater temp
2015-Mar-29 21:33N 36°10' W 005°23'0 0.0
2015-Mar-29 20:27N 36°10' W 005°23'0 0.1
2015-Mar-29 19:27N 36°10' W 005°23'0 0.1
2015-Mar-29 18:33N 36°10' W 005°23'0 0.0
2015-Mar-29 17:30N 36°10' W 005°23'0 0.0
2015-Mar-29 16:33N 36°10' W 005°23'0 0.0
2015-Mar-29 15:33N 36°10' W 005°23'0 0.0
2015-Mar-29 14:30N 36°10' W 005°23'0 0.0
2015-Mar-29 13:30N 36°10' W 005°23'0 0.1
2015-Mar-29 12:18N 36°10' W 005°23'2 3.0
2015-Mar-29 11:33N 36°08' W 005°23'6 6.3
2015-Mar-29 10:33N 36°01' W 005°23'11913.1
2015-Mar-29 01:32N 35°05' W 007°32'1514.0
2015-Mar-29 00:28N 34°55' W 007°45'1313.8
2015-Mar-28 23:33N 34°47' W 007°57'1613.5
2015-Mar-28 22:23N 34°37' W 008°12'45011.2
2015-Mar-27 06:09N 29°07' W 014°12'710.2
2015-Mar-27 05:29N 29°02' W 014°17'1010.2
2015-Mar-27 04:29N 28°53' W 014°24'1010.2
2015-Mar-27 03:30N 28°45' W 014°30'1010.4
2015-Mar-27 02:32N 28°37' W 014°37'1010.7
2015-Mar-27 01:33N 28°28' W 014°44'1110.6
2015-Mar-27 00:33N 28°19' W 014°50'1010.3
2015-Mar-26 23:33N 28°10' W 014°55'1211.6
2015-Mar-26 22:33N 27°59' W 014°60'1010.6
2015-Mar-26 21:33N 27°49' W 015°03'10 9.7
2015-Mar-26 20:33N 27°40' W 015°07'10 9.7
2015-Mar-26 19:33N 27°30' W 015°10'  
2015-Mar-22 09:33N 09°48' W 017°48'16811.2
2015-Mar-21 18:33N 07°28' W 016°14'1111.5
2015-Mar-21 17:33N 07°19' W 016°07'1111.4
2015-Mar-21 16:33N 07°10' W 015°60'1111.3
2015-Mar-21 15:33N 07°01' W 015°52'  
Track history (hours):
 
Tides and Currents Weather Stations Pressure Air Temp Water Temp Dewpoint Dewpoint Depression Visibility Wind Speed Wind Dir Waves Ship Positions

Delta Ios

Last reported at 2015-Mar-29 21:33 UTC. Time now 2015-Mar-29 22:22 UTC.
Position N 36°10' W 005°23'.

Length 276 m; draft 15.3 m.

Type: Ship (hazmat cat C). MMSI: 240821000.

Date/timePositionNaut miles runAvg speedWind from/ knotsBaromVisibWave heightAir tempDewpointWater temp
2015-Mar-29 21:33N 36°10' W 005°23'0 0.0
2015-Mar-29 20:27N 36°10' W 005°23'0 0.1
2015-Mar-29 19:27N 36°10' W 005°23'0 0.1
2015-Mar-29 18:33N 36°10' W 005°23'0 0.0
2015-Mar-29 17:30N 36°10' W 005°23'0 0.0
2015-Mar-29 16:33N 36°10' W 005°23'0 0.0
2015-Mar-29 15:33N 36°10' W 005°23'0 0.0
2015-Mar-29 14:30N 36°10' W 005°23'0 0.0
2015-Mar-29 13:30N 36°10' W 005°23'0 0.1
2015-Mar-29 12:18N 36°10' W 005°23'2 3.0
2015-Mar-29 11:33N 36°08' W 005°23'6 6.3
2015-Mar-29 10:33N 36°01' W 005°23'11913.1
2015-Mar-29 01:32N 35°05' W 007°32'1514.0
2015-Mar-29 00:28N 34°55' W 007°45'1313.8
2015-Mar-28 23:33N 34°47' W 007°57'1613.5
2015-Mar-28 22:23N 34°37' W 008°12'45011.2
2015-Mar-27 06:09N 29°07' W 014°12'710.2
2015-Mar-27 05:29N 29°02' W 014°17'1010.2
2015-Mar-27 04:29N 28°53' W 014°24'1010.2
2015-Mar-27 03:30N 28°45' W 014°30'1010.4
2015-Mar-27 02:32N 28°37' W 014°37'1010.7
2015-Mar-27 01:33N 28°28' W 014°44'1110.6
2015-Mar-27 00:33N 28°19' W 014°50'1010.3
2015-Mar-26 23:33N 28°10' W 014°55'1211.6
2015-Mar-26 22:33N 27°59' W 014°60'1010.6
2015-Mar-26 21:33N 27°49' W 015°03'10 9.7
2015-Mar-26 20:33N 27°40' W 015°07'10 9.7
2015-Mar-26 19:33N 27°30' W 015°10'  
2015-Mar-22 09:33N 09°48' W 017°48'16811.2
2015-Mar-21 18:33N 07°28' W 016°14'1111.5
2015-Mar-21 17:33N 07°19' W 016°07'1111.4
2015-Mar-21 16:33N 07°10' W 015°60'1111.3
2015-Mar-21 15:33N 07°01' W 015°52'  

Dump ship's entire track history